createdAt,value
2023-01-08T00:03:12.740Z,1019.93
2023-01-08T00:17:12.607Z,1019.69
2023-01-08T00:31:12.689Z,1019.76
2023-01-08T00:45:12.630Z,1019.79
2023-01-08T00:59:12.642Z,1019.75
2023-01-08T01:13:12.637Z,1019.83
2023-01-08T01:27:12.649Z,1019.64
2023-01-08T01:41:12.663Z,1019.43
2023-01-08T01:55:12.651Z,1019.3
2023-01-08T02:09:12.692Z,1019.23
2023-01-08T02:23:12.723Z,1019.38
2023-01-08T02:37:12.720Z,1019.43
2023-01-08T02:51:12.716Z,1019.33
2023-01-08T03:05:12.723Z,1019.16
2023-01-08T03:19:12.728Z,1018.97
2023-01-08T03:33:12.734Z,1018.89
2023-01-08T03:47:12.818Z,1018.76
2023-01-08T04:01:12.823Z,1018.62
2023-01-08T04:15:12.816Z,1018.53
2023-01-08T04:29:12.844Z,1018.18
2023-01-08T04:43:12.822Z,1018.29
2023-01-08T04:57:12.885Z,1018.35
2023-01-08T05:12:12.883Z,1018.2
2023-01-08T05:26:12.916Z,1018.17
2023-01-08T05:40:12.953Z,1018.17
2023-01-08T05:54:12.928Z,1018.13
2023-01-08T06:08:12.911Z,1018.29
2023-01-08T06:22:12.990Z,1018.25
2023-01-08T06:36:12.973Z,1017.92
2023-01-08T06:52:12.973Z,1018.08
2023-01-08T07:07:12.957Z,1018.1
2023-01-08T07:22:12.982Z,1017.96
2023-01-08T07:37:12.987Z,1017.65
2023-01-08T07:52:13.027Z,1017.65
2023-01-08T08:07:13.068Z,1017.46
2023-01-08T08:22:13.071Z,1017.5
2023-01-08T08:37:13.098Z,1017.25
2023-01-08T08:52:13.087Z,1017.48
2023-01-08T09:07:13.085Z,1017.52
2023-01-08T09:22:13.113Z,1017.7
2023-01-08T09:37:13.117Z,1017.61
2023-01-08T09:52:13.130Z,1017.35
2023-01-08T10:07:13.095Z,1016.96
2023-01-08T10:22:13.195Z,1016.6
2023-01-08T10:37:13.210Z,1016.55
2023-01-08T10:52:13.193Z,1016.48
2023-01-08T11:07:13.244Z,1016.23
2023-01-08T11:22:13.255Z,1016
2023-01-08T11:37:13.241Z,1015.68
2023-01-08T11:52:13.244Z,1015.45
2023-01-08T12:07:13.247Z,1015.36
2023-01-08T12:22:13.256Z,1015.12
2023-01-08T12:37:13.284Z,1014.97
2023-01-08T12:52:13.328Z,1014.87
2023-01-08T13:07:13.322Z,1014.83
2023-01-08T13:22:13.300Z,1014.67
2023-01-08T13:37:26.878Z,1014.33
2023-01-08T13:52:13.403Z,1014.16
2023-01-08T14:07:13.458Z,1014.06
2023-01-08T14:22:13.466Z,1014.17
2023-01-08T14:37:13.446Z,1014.17
2023-01-08T14:52:13.483Z,1014.02
2023-01-08T15:07:13.443Z,1014
2023-01-08T15:22:13.444Z,1014.01
2023-01-08T15:37:13.473Z,1013.85
2023-01-08T15:52:13.467Z,1013.72
2023-01-08T16:07:13.465Z,1013.51
2023-01-08T16:21:13.476Z,1013.39
2023-01-08T16:35:13.473Z,1013.21
2023-01-08T16:49:13.480Z,1012.89
2023-01-08T17:03:13.521Z,1012.67
2023-01-08T17:17:13.482Z,1012.64
2023-01-08T17:31:13.591Z,1012.18
2023-01-08T17:45:13.606Z,1011.98
2023-01-08T17:59:13.594Z,1012.06
2023-01-08T18:13:13.598Z,1011.82
2023-01-08T18:27:13.670Z,1011.54
2023-01-08T18:41:13.697Z,1011.57
2023-01-08T18:55:13.687Z,1011.41
2023-01-08T19:09:13.695Z,1011.29
2023-01-08T19:23:13.673Z,1011.07
2023-01-08T19:37:13.700Z,1010.87
2023-01-08T19:51:13.710Z,1010.75
2023-01-08T20:05:13.737Z,1010.63
2023-01-08T20:19:13.748Z,1010.31
2023-01-08T20:33:14.224Z,1010.35
2023-01-08T20:47:13.794Z,1010.09
2023-01-08T21:01:13.897Z,1009.73
2023-01-08T21:15:13.781Z,1009.79
2023-01-08T21:29:13.777Z,1009.45
2023-01-08T21:43:13.824Z,1009.14
2023-01-08T21:57:13.842Z,1008.84
2023-01-08T22:11:14.153Z,1008.6
2023-01-08T22:25:13.781Z,1008.49
2023-01-08T22:39:13.794Z,1008.32
2023-01-08T22:53:13.825Z,1008.18
2023-01-08T23:07:13.829Z,1008.04
2023-01-08T23:21:13.851Z,1007.77
2023-01-08T23:35:13.821Z,1007.64
2023-01-08T23:49:13.843Z,1007.47
